Time;durP1;ratioP1;P1;durP2;ratioP2;P2;SDS_P1;SDS_P2;PMS_P1;PMS_P2;Temp;Humidity;BMP_temperature;BMP_pressure;BME280_temperature;BME280_humidity;BME280_pressure;Samples;Min_cycle;Max_cycle;Signal;HPM_P1;HPM_P2
2023/12/28 00:01:37;;;;;;;489.58;200.75;;;1.80;99.90;;;;;;4977642;28;20457;-56
2023/12/28 00:04:03;;;;;;;473.20;198.40;;;1.90;99.90;;;;;;4977652;28;20393;-56
2023/12/28 00:06:29;;;;;;;425.52;178.25;;;1.90;99.90;;;;;;4977589;28;20504;-56
2023/12/28 00:08:54;;;;;;;467.58;199.35;;;1.90;99.90;;;;;;4977680;28;20019;-56
2023/12/28 00:11:20;;;;;;;413.90;187.75;;;1.90;99.90;;;;;;4977489;28;20042;-56
2023/12/28 00:13:46;;;;;;;375.90;172.77;;;1.90;99.90;;;;;;4977457;28;20122;-56
2023/12/28 00:16:12;;;;;;;444.73;195.45;;;1.90;99.90;;;;;;4977364;28;20461;-56
2023/12/28 00:18:38;;;;;;;409.50;178.90;;;1.90;99.90;;;;;;4977417;28;20165;-55
2023/12/28 00:21:04;;;;;;;410.02;181.85;;;1.90;99.90;;;;;;4977350;28;20560;-56
2023/12/28 00:23:30;;;;;;;455.65;201.20;;;2.00;99.90;;;;;;4977561;28;20096;-56
2023/12/28 00:25:56;;;;;;;438.75;192.73;;;2.10;99.90;;;;;;4977274;28;20110;-56
2023/12/28 00:28:21;;;;;;;451.90;202.20;;;2.10;99.90;;;;;;4977249;28;20026;-56
2023/12/28 00:30:47;;;;;;;458.08;206.57;;;2.10;99.90;;;;;;4975993;28;20503;-55
2023/12/28 00:33:13;;;;;;;412.23;182.18;;;2.20;99.90;;;;;;4977248;28;20050;-56
2023/12/28 00:35:39;;;;;;;336.20;149.40;;;2.10;99.90;;;;;;4975873;28;20035;-56
2023/12/28 00:38:05;;;;;;;326.15;143.68;;;2.10;99.90;;;;;;4976971;28;20019;-55
2023/12/28 00:40:31;;;;;;;313.77;146.75;;;2.00;99.90;;;;;;4976938;28;20026;-56
2023/12/28 00:42:57;;;;;;;297.65;136.95;;;2.00;99.90;;;;;;4975809;28;20404;-56
2023/12/28 00:45:23;;;;;;;293.45;135.55;;;1.90;99.90;;;;;;4977232;28;20034;-56
2023/12/28 00:47:51;;;;;;;292.92;140.45;;;1.80;99.90;;;;;;4976899;28;20031;-55
2023/12/28 00:50:18;;;;;;;275.92;133.52;;;1.90;99.90;;;;;;4975744;28;20026;-56
2023/12/28 00:52:44;;;;;;;305.10;141.38;;;1.80;99.90;;;;;;4976869;28;20548;-56
2023/12/28 00:55:10;;;;;;;327.83;145.57;;;1.70;99.90;;;;;;4975564;28;20118;-56
2023/12/28 00:57:36;;;;;;;333.38;146.45;;;1.80;99.90;;;;;;4976296;28;20031;-56
2023/12/28 01:00:02;;;;;;;333.13;144.98;;;1.80;99.90;;;;;;4975544;28;20022;-56
2023/12/28 01:02:29;;;;;;;367.65;156.93;;;1.70;99.90;;;;;;4976683;28;20372;-56
2023/12/28 01:04:54;;;;;;;359.90;158.50;;;1.80;99.90;;;;;;4976796;28;20033;-56
2023/12/28 01:07:20;;;;;;;333.00;147.73;;;1.80;99.90;;;;;;4976520;28;20031;-55
2023/12/28 01:09:46;;;;;;;283.65;129.15;;;1.70;99.90;;;;;;4976739;28;20022;-56
2023/12/28 01:12:12;;;;;;;279.83;127.72;;;1.90;99.90;;;;;;4975388;28;20484;-56
2023/12/28 01:14:38;;;;;;;255.32;117.15;;;1.90;99.90;;;;;;4976495;28;20043;-56
2023/12/28 01:17:04;;;;;;;235.80;112.90;;;1.70;99.90;;;;;;4976450;28;20042;-56
2023/12/28 01:19:29;;;;;;;207.77;100.15;;;1.70;99.90;;;;;;4975316;28;20477;-56
2023/12/28 01:21:55;;;;;;;209.63;95.95;;;1.80;99.90;;;;;;4976444;28;20105;-56
2023/12/28 01:24:21;;;;;;;215.90;103.78;;;1.90;99.90;;;;;;4975562;28;20536;-56
2023/12/28 01:26:47;;;;;;;199.52;96.93;;;1.80;99.90;;;;;;4975276;28;20031;-55
2023/12/28 01:29:13;;;;;;;201.70;99.63;;;1.80;99.90;;;;;;4976504;28;20054;-56
2023/12/28 01:31:40;;;;;;;221.50;107.78;;;1.70;99.90;;;;;;4976441;28;20031;-56
2023/12/28 01:34:06;;;;;;;216.07;105.57;;;1.50;99.90;;;;;;4975245;28;20027;-56
2023/12/28 01:36:33;;;;;;;210.55;99.45;;;1.40;99.90;;;;;;4975056;28;20061;-56
2023/12/28 01:38:59;;;;;;;213.68;103.85;;;1.50;99.90;;;;;;4975271;28;20034;-56
2023/12/28 01:41:25;;;;;;;211.02;104.80;;;1.50;99.90;;;;;;4976295;28;20092;-56
2023/12/28 01:43:52;;;;;;;203.80;102.50;;;1.30;99.90;;;;;;4975147;28;20532;-56
2023/12/28 01:46:20;;;;;;;212.00;99.53;;;1.20;99.90;;;;;;4976343;28;20031;-55
2023/12/28 01:48:49;;;;;;;184.57;91.53;;;1.20;99.90;;;;;;4976329;28;20027;-56
2023/12/28 01:51:16;;;;;;;199.35;95.28;;;1.20;99.90;;;;;;4976257;28;20058;-55
2023/12/28 01:53:47;;;;;;;212.77;102.28;;;1.20;99.90;;;;;;4974955;28;20042;-55
2023/12/28 01:56:13;;;;;;;232.10;120.70;;;0.90;99.90;;;;;;4975027;28;20035;-55
2023/12/28 01:58:44;;;;;;;231.27;112.40;;;0.80;99.90;;;;;;4974973;28;20239;-55
2023/12/28 02:01:11;;;;;;;230.20;116.22;;;0.80;99.90;;;;;;4974946;28;20038;-55
2023/12/28 02:03:37;;;;;;;230.50;112.70;;;0.70;99.90;;;;;;4974949;28;20074;-55
2023/12/28 02:06:04;;;;;;;222.70;108.20;;;0.80;99.90;;;;;;4974985;28;20055;-55
2023/12/28 02:08:30;;;;;;;206.27;106.45;;;0.80;99.90;;;;;;4977312;28;20499;-55
2023/12/28 02:10:56;;;;;;;220.05;105.43;;;0.70;99.90;;;;;;4978512;28;20039;-55
2023/12/28 02:13:22;;;;;;;194.85;96.45;;;0.70;99.90;;;;;;4979751;28;20163;-55
2023/12/28 02:16:06;;;;;;;195.82;96.85;;;0.80;99.90;;;;;;4978411;28;20031;-55
2023/12/28 02:18:47;;;;;;;200.20;98.70;;;0.80;99.90;;;;;;4978425;28;20035;-55
2023/12/28 02:21:15;;;;;;;208.93;101.97;;;0.70;99.90;;;;;;4979547;28;20164;-55
2023/12/28 02:23:49;;;;;;;203.35;99.70;;;0.60;99.90;;;;;;4979534;28;20027;-55
2023/12/28 02:26:18;;;;;;;220.88;106.88;;;0.70;99.90;;;;;;4979536;28;20377;-55
2023/12/28 02:28:45;;;;;;;221.15;107.82;;;0.60;99.90;;;;;;4978103;28;20022;-55
2023/12/28 02:31:31;;;;;;;236.13;116.63;;;0.60;99.90;;;;;;4979452;28;20026;-55
2023/12/28 02:34:08;;;;;;;253.88;119.90;;;0.50;99.90;;;;;;4978604;28;20114;-55
2023/12/28 02:36:36;;;;;;;253.88;120.00;;;0.60;99.90;;;;;;4977883;28;20042;-56
2023/12/28 02:39:04;;;;;;;258.10;122.30;;;0.60;99.90;;;;;;4977943;28;20387;-55
2023/12/28 02:41:31;;;;;;;268.33;127.93;;;0.60;99.90;;;;;;4979205;28;20062;-55
2023/12/28 02:43:58;;;;;;;293.27;144.63;;;0.50;99.90;;;;;;4979598;28;20037;-55
2023/12/28 02:46:24;;;;;;;292.90;142.05;;;0.40;99.90;;;;;;4977884;28;20055;-55
2023/12/28 02:48:50;;;;;;;278.35;134.68;;;0.40;99.90;;;;;;4977899;28;20405;-55
2023/12/28 02:51:16;;;;;;;297.98;144.93;;;0.40;99.90;;;;;;4979030;28;20058;-56
2023/12/28 02:53:42;;;;;;;305.30;143.60;;;0.50;99.90;;;;;;4978917;28;20031;-55
2023/12/28 02:56:08;;;;;;;296.48;139.10;;;0.50;99.90;;;;;;4978989;28;20033;-55
2023/12/28 02:58:34;;;;;;;277.92;134.77;;;0.40;99.90;;;;;;4977619;28;20085;-55
2023/12/28 03:01:00;;;;;;;274.50;134.65;;;0.40;99.90;;;;;;4977504;28;20038;-55
2023/12/28 03:03:25;;;;;;;256.27;118.93;;;0.40;99.90;;;;;;4978780;28;20101;-55
2023/12/28 03:05:51;;;;;;;281.80;133.25;;;0.30;99.90;;;;;;4977534;28;20031;-55
2023/12/28 03:08:17;;;;;;;266.98;129.50;;;0.30;99.90;;;;;;4977176;28;20027;-55
2023/12/28 03:10:43;;;;;;;259.67;125.78;;;0.30;99.90;;;;;;4977391;28;20126;-55
2023/12/28 03:13:09;;;;;;;260.60;126.25;;;0.50;99.90;;;;;;4977294;28;20034;-55
2023/12/28 03:15:35;;;;;;;253.00;126.78;;;0.50;99.90;;;;;;4978637;28;20477;-55
2023/12/28 03:18:00;;;;;;;264.58;130.57;;;0.50;99.90;;;;;;4977149;28;20039;-55
2023/12/28 03:20:26;;;;;;;261.20;129.25;;;0.50;99.90;;;;;;4976599;28;20038;-55
2023/12/28 03:22:52;;;;;;;272.77;128.80;;;0.50;99.90;;;;;;4977146;28;20031;-55
2023/12/28 03:25:20;;;;;;;273.20;132.05;;;0.40;99.90;;;;;;4978571;28;20061;-55
2023/12/28 03:27:46;;;;;;;265.77;124.22;;;0.40;99.90;;;;;;4977176;28;20495;-55
2023/12/28 03:30:11;;;;;;;246.82;118.72;;;0.30;99.90;;;;;;4976993;28;20468;-55
2023/12/28 03:32:38;;;;;;;268.42;129.80;;;0.30;99.90;;;;;;4978353;28;20026;-55
2023/12/28 03:35:05;;;;;;;276.02;133.90;;;0.30;99.90;;;;;;4978226;28;20026;-55
2023/12/28 03:37:31;;;;;;;262.70;128.65;;;0.30;99.90;;;;;;4978061;28;20026;-55
2023/12/28 03:39:57;;;;;;;259.80;124.18;;;0.20;99.90;;;;;;4976898;28;20046;-55
2023/12/28 03:42:23;;;;;;;273.23;130.25;;;0.30;99.90;;;;;;4977935;28;20038;-55
2023/12/28 03:44:48;;;;;;;291.38;139.38;;;0.40;99.90;;;;;;4978139;28;20089;-55
2023/12/28 03:47:14;;;;;;;265.23;125.57;;;0.50;99.90;;;;;;4976813;28;20037;-55
2023/12/28 03:49:41;;;;;;;290.92;134.65;;;0.50;99.90;;;;;;4977971;28;20031;-55
2023/12/28 03:52:07;;;;;;;285.73;132.63;;;0.50;99.90;;;;;;4976668;28;20126;-55
2023/12/28 03:54:33;;;;;;;261.00;124.57;;;0.60;99.90;;;;;;4976620;28;20062;-55
2023/12/28 03:56:59;;;;;;;249.48;112.85;;;0.50;99.90;;;;;;4976576;28;20126;-55
2023/12/28 03:59:24;;;;;;;243.30;112.80;;;0.60;99.90;;;;;;4978002;28;20026;-55
2023/12/28 04:01:50;;;;;;;231.63;107.30;;;0.70;99.90;;;;;;4976467;28;20062;-55
2023/12/28 04:04:16;;;;;;;208.20;101.00;;;0.40;99.90;;;;;;4977566;28;20455;-55
2023/12/28 04:06:43;;;;;;;201.02;95.53;;;0.30;99.90;;;;;;4976335;28;20023;-56
2023/12/28 04:09:12;;;;;;;211.52;102.50;;;0.20;99.90;;;;;;4976410;28;20033;-55
2023/12/28 04:11:38;;;;;;;219.65;103.72;;;0.20;99.90;;;;;;4976326;28;20035;-55
2023/12/28 04:14:04;;;;;;;223.48;105.82;;;0.10;99.90;;;;;;4976079;28;20042;-55
2023/12/28 04:16:29;;;;;;;231.60;107.75;;;0.10;99.90;;;;;;4976207;28;20544;-55
2023/12/28 04:18:55;;;;;;;226.85;105.93;;;0.10;99.90;;;;;;4976154;28;20058;-55
2023/12/28 04:21:21;;;;;;;210.60;102.25;;;0.20;99.90;;;;;;4977267;28;20057;-55
2023/12/28 04:23:47;;;;;;;231.48;105.75;;;0.20;99.90;;;;;;4977310;28;20380;-55
2023/12/28 04:26:13;;;;;;;208.98;99.55;;;0.20;99.90;;;;;;4976084;28;20472;-55
2023/12/28 04:28:39;;;;;;;211.05;103.38;;;0.20;99.90;;;;;;4976047;28;20026;-55
2023/12/28 04:31:06;;;;;;;227.75;101.63;;;0.00;99.90;;;;;;4975114;28;20042;-55
2023/12/28 04:33:32;;;;;;;289.83;115.38;;;-0.10;99.90;;;;;;4975849;28;20071;-55
2023/12/28 04:36:05;;;;;;;297.27;119.20;;;0.00;99.90;;;;;;4976210;28;20498;-55
2023/12/28 04:38:32;;;;;;;286.30;105.57;;;0.00;99.90;;;;;;4975714;28;20376;-55
2023/12/28 04:41:00;;;;;;;262.33;107.43;;;0.10;99.90;;;;;;4975957;28;20034;-55
2023/12/28 04:43:25;;;;;;;180.23;78.55;;;0.20;99.90;;;;;;4975745;28;20497;-55
2023/12/28 04:45:52;;;;;;;204.25;84.82;;;0.20;99.90;;;;;;4975799;28;20023;-55
2023/12/28 04:48:23;;;;;;;198.27;89.88;;;0.10;99.90;;;;;;4977011;28;20091;-55
2023/12/28 04:50:49;;;;;;;208.05;95.60;;;0.10;99.90;;;;;;4976958;28;20034;-55
2023/12/28 04:53:15;;;;;;;197.02;90.32;;;0.10;99.90;;;;;;4975797;28;20035;-55
2023/12/28 04:55:41;;;;;;;183.63;85.63;;;0.20;99.90;;;;;;4976869;28;20492;-55
2023/12/28 04:58:07;;;;;;;190.30;85.45;;;0.10;99.90;;;;;;4975466;28;20038;-55
2023/12/28 05:00:34;;;;;;;187.45;87.97;;;0.10;99.90;;;;;;4976761;28;20041;-55
2023/12/28 05:03:00;;;;;;;210.40;93.75;;;0.10;99.90;;;;;;4975610;28;20139;-55
2023/12/28 05:05:25;;;;;;;222.45;99.68;;;0.10;99.90;;;;;;4975424;28;20396;-55
2023/12/28 05:07:51;;;;;;;240.20;101.38;;;0.00;99.90;;;;;;4975361;28;20034;-55
2023/12/28 05:10:17;;;;;;;270.13;111.13;;;0.00;99.90;;;;;;4976727;28;20504;-55
2023/12/28 05:12:43;;;;;;;205.00;95.55;;;0.00;99.90;;;;;;4975363;28;20059;-55
2023/12/28 05:15:09;;;;;;;239.00;107.57;;;0.00;99.90;;;;;;4975473;28;20245;-55
2023/12/28 05:17:35;;;;;;;222.77;96.53;;;0.00;99.90;;;;;;4976397;28;20472;-55
2023/12/28 05:20:01;;;;;;;228.13;101.43;;;0.00;99.90;;;;;;4976596;28;20035;-55
2023/12/28 05:22:28;;;;;;;220.88;98.00;;;-0.10;99.90;;;;;;4976729;28;20054;-55
2023/12/28 05:24:54;;;;;;;230.45;98.78;;;-0.10;99.90;;;;;;4976584;28;20031;-55
2023/12/28 05:27:20;;;;;;;221.02;97.20;;;-0.20;99.90;;;;;;4976499;28;20381;-55
2023/12/28 05:29:46;;;;;;;243.60;101.32;;;0.00;99.90;;;;;;4976789;28;20111;-55
2023/12/28 05:32:11;;;;;;;210.95;91.95;;;0.00;99.90;;;;;;4976407;28;20035;-55
2023/12/28 05:34:37;;;;;;;286.67;118.30;;;0.10;99.90;;;;;;4976444;28;20035;-55
2023/12/28 05:37:03;;;;;;;233.98;101.43;;;0.20;99.90;;;;;;4976297;28;20026;-55
2023/12/28 05:39:29;;;;;;;242.57;110.90;;;0.20;99.90;;;;;;4976461;28;20037;-55
2023/12/28 05:41:55;;;;;;;276.48;119.28;;;0.30;99.90;;;;;;4976411;28;20503;-55
2023/12/28 05:44:21;;;;;;;268.17;112.85;;;0.30;99.90;;;;;;4980217;28;20027;-55
2023/12/28 05:46:47;;;;;;;313.60;114.28;;;0.30;99.90;;;;;;4980192;28;20034;-55
2023/12/28 05:49:12;;;;;;;349.38;122.70;;;0.30;99.90;;;;;;4980066;28;20019;-55
2023/12/28 05:51:42;;;;;;;440.98;135.02;;;0.40;99.90;;;;;;4980077;28;20483;-55
2023/12/28 05:54:08;;;;;;;364.48;127.45;;;0.40;99.90;;;;;;4980032;28;20031;-55
2023/12/28 05:56:34;;;;;;;385.90;129.73;;;0.50;99.90;;;;;;4980051;28;20122;-56
2023/12/28 05:59:00;;;;;;;252.25;102.72;;;0.40;99.90;;;;;;4980057;28;20062;-56
2023/12/28 06:01:27;;;;;;;331.83;124.53;;;0.40;99.90;;;;;;4979867;28;20035;-55
2023/12/28 06:03:53;;;;;;;355.23;129.95;;;0.40;99.90;;;;;;4979803;28;20134;-55
2023/12/28 06:06:20;;;;;;;336.42;125.10;;;0.40;99.90;;;;;;4979829;28;20382;-55
2023/12/28 06:08:46;;;;;;;362.88;127.60;;;0.40;99.90;;;;;;4986098;28;20412;-56
2023/12/28 06:11:12;;;;;;;387.98;133.52;;;0.40;99.90;;;;;;4999166;28;20030;-55
2023/12/28 06:13:38;;;;;;;397.17;148.57;;;0.30;99.90;;;;;;4999504;28;20032;-56
2023/12/28 06:16:04;;;;;;;394.50;145.48;;;0.30;99.90;;;;;;4999273;28;20464;-55
2023/12/28 06:18:30;;;;;;;356.25;142.88;;;0.30;99.90;;;;;;4999166;28;20033;-56
2023/12/28 06:20:55;;;;;;;295.38;122.70;;;0.30;99.90;;;;;;4997516;28;20043;-55
2023/12/28 06:23:21;;;;;;;326.90;127.93;;;0.30;99.90;;;;;;4992839;28;20038;-55
2023/12/28 06:25:47;;;;;;;329.50;121.55;;;0.20;99.90;;;;;;4991538;28;20413;-56
2023/12/28 06:28:13;;;;;;;295.63;120.55;;;0.30;99.90;;;;;;4998743;28;20085;-55
2023/12/28 06:30:39;;;;;;;354.55;128.77;;;0.50;99.90;;;;;;4998625;28;20034;-56
2023/12/28 06:33:05;;;;;;;322.80;123.82;;;0.40;99.90;;;;;;4998724;28;20034;-55
2023/12/28 06:35:31;;;;;;;345.80;127.07;;;0.50;99.90;;;;;;4998653;28;20026;-55
2023/12/28 06:37:57;;;;;;;353.05;124.63;;;0.50;99.90;;;;;;5002942;28;20161;-55
2023/12/28 06:40:23;;;;;;;397.70;134.93;;;0.40;99.90;;;;;;5004419;28;20135;-55
2023/12/28 06:42:49;;;;;;;313.25;122.53;;;0.40;99.90;;;;;;4998624;28;20058;-55
2023/12/28 06:45:15;;;;;;;332.15;120.53;;;0.40;99.90;;;;;;5013426;28;20030;-55
2023/12/28 06:47:40;;;;;;;358.40;125.68;;;0.40;99.90;;;;;;4995417;28;20022;-55
2023/12/28 06:50:07;;;;;;;239.82;90.82;;;0.40;99.90;;;;;;4998637;28;20034;-56
2023/12/28 06:52:33;;;;;;;195.27;79.80;;;0.50;99.90;;;;;;4996409;28;20026;-55
2023/12/28 06:54:59;;;;;;;177.75;72.28;;;0.70;99.90;;;;;;4995587;28;20119;-56
2023/12/28 06:57:24;;;;;;;231.40;92.85;;;0.50;99.90;;;;;;4996913;28;20033;-55
2023/12/28 06:59:52;;;;;;;248.10;107.47;;;0.50;99.90;;;;;;4987074;28;20035;-56
2023/12/28 07:02:18;;;;;;;261.02;111.03;;;0.50;99.90;;;;;;4986899;28;20112;-56
2023/12/28 07:04:43;;;;;;;243.68;109.75;;;0.40;99.90;;;;;;4987218;28;20507;-56
2023/12/28 07:07:09;;;;;;;276.27;119.93;;;0.30;99.90;;;;;;4993258;28;20061;-56
2023/12/28 07:09:35;;;;;;;298.42;135.73;;;0.30;99.90;;;;;;4997826;28;20049;-56
2023/12/28 07:12:02;;;;;;;312.50;144.43;;;0.40;99.90;;;;;;4996551;28;20022;-56
2023/12/28 07:14:28;;;;;;;337.48;130.77;;;0.40;99.90;;;;;;4992971;28;20125;-56
2023/12/28 07:16:53;;;;;;;339.20;133.05;;;0.50;99.90;;;;;;5002992;28;20499;-56
2023/12/28 07:19:19;;;;;;;348.73;131.20;;;0.50;99.90;;;;;;4997711;28;20041;-56
2023/12/28 07:21:45;;;;;;;285.92;116.43;;;0.70;99.90;;;;;;4992222;28;20027;-56
2023/12/28 07:24:11;;;;;;;276.15;111.85;;;0.80;99.90;;;;;;4983012;28;20031;-57
2023/12/28 07:26:37;;;;;;;362.75;138.38;;;0.90;99.90;;;;;;4984407;28;20027;-57
2023/12/28 07:29:03;;;;;;;308.25;133.55;;;0.90;99.90;;;;;;4978114;28;20135;-57
2023/12/28 07:31:31;;;;;;;361.98;144.00;;;1.00;99.90;;;;;;4978072;28;20039;-57
2023/12/28 07:33:58;;;;;;;365.60;139.70;;;1.10;99.90;;;;;;5009722;28;20036;-57
2023/12/28 07:36:24;;;;;;;443.90;168.48;;;1.00;99.90;;;;;;5016552;28;20053;-57
2023/12/28 07:38:50;;;;;;;545.33;199.38;;;1.00;99.90;;;;;;5017150;28;20022;-57
2023/12/28 07:41:16;;;;;;;472.92;177.80;;;1.10;99.90;;;;;;5016626;28;20052;-56
2023/12/28 07:43:42;;;;;;;409.65;154.10;;;1.20;99.90;;;;;;5017304;28;20478;-56
2023/12/28 07:46:08;;;;;;;608.92;197.45;;;1.00;99.90;;;;;;5008625;28;20033;-56
2023/12/28 07:48:34;;;;;;;433.50;157.88;;;1.10;99.90;;;;;;4986064;28;20031;-56
2023/12/28 07:51:05;;;;;;;488.58;177.95;;;1.20;99.90;;;;;;4996563;28;20113;-57
2023/12/28 07:53:31;;;;;;;524.25;186.32;;;1.30;99.90;;;;;;4997688;28;20038;-56
2023/12/28 07:55:57;;;;;;;533.53;186.70;;;1.30;99.90;;;;;;4997513;28;20122;-57
2023/12/28 07:58:23;;;;;;;499.05;183.25;;;1.30;99.90;;;;;;4997193;28;20030;-57
2023/12/28 08:00:49;;;;;;;510.50;171.82;;;1.30;99.90;;;;;;4993936;28;20030;-57
2023/12/28 08:03:17;;;;;;;471.00;153.32;;;1.30;99.90;;;;;;4989411;28;20030;-57
2023/12/28 08:05:43;;;;;;;586.38;189.23;;;1.40;99.90;;;;;;5014476;28;20080;-57
2023/12/28 08:08:09;;;;;;;466.83;159.77;;;1.40;99.90;;;;;;5016781;28;20026;-57
2023/12/28 08:10:35;;;;;;;307.42;127.30;;;1.50;99.90;;;;;;4998864;28;20379;-56
2023/12/28 08:13:01;;;;;;;533.20;152.45;;;1.50;99.90;;;;;;4996299;28;20041;-56
2023/12/28 08:15:26;;;;;;;308.23;118.78;;;1.40;99.90;;;;;;4996768;28;20049;-56
2023/12/28 08:17:52;;;;;;;310.10;123.85;;;1.60;99.90;;;;;;5004248;28;20065;-57
2023/12/28 08:20:18;;;;;;;291.02;116.03;;;1.80;99.90;;;;;;5016536;28;20065;-56
2023/12/28 08:22:44;;;;;;;472.48;134.93;;;2.00;99.90;;;;;;5016234;28;20109;-57
2023/12/28 08:25:10;;;;;;;402.67;128.52;;;2.00;99.90;;;;;;5012268;28;20526;-57
2023/12/28 08:27:36;;;;;;;407.88;130.18;;;1.90;99.90;;;;;;4997609;28;20448;-56
2023/12/28 08:30:02;;;;;;;428.77;136.10;;;1.90;99.90;;;;;;4996992;28;20023;-57
2023/12/28 08:32:28;;;;;;;287.55;102.75;;;2.00;99.90;;;;;;4983815;28;20220;-57
2023/12/28 08:34:54;;;;;;;285.10;113.03;;;2.00;99.90;;;;;;5004320;28;20487;-57
2023/12/28 08:37:20;;;;;;;282.45;105.57;;;2.10;99.90;;;;;;5014401;28;20026;-57
2023/12/28 08:39:46;;;;;;;260.73;101.15;;;2.10;99.90;;;;;;4995145;28;20049;-57
2023/12/28 08:42:12;;;;;;;375.25;109.55;;;2.20;99.90;;;;;;4995256;28;20022;-57
2023/12/28 08:44:38;;;;;;;247.13;101.00;;;2.20;99.90;;;;;;4995524;28;20031;-57
2023/12/28 08:47:04;;;;;;;251.93;107.05;;;2.30;99.90;;;;;;4996397;28;20035;-57
2023/12/28 08:49:30;;;;;;;338.60;121.20;;;2.50;99.90;;;;;;5008734;28;20042;-57
2023/12/28 08:51:55;;;;;;;401.90;130.40;;;2.50;99.90;;;;;;5001551;28;20036;-57
2023/12/28 08:54:21;;;;;;;326.73;127.25;;;2.50;99.90;;;;;;4996414;28;20035;-57
2023/12/28 08:56:48;;;;;;;344.80;127.40;;;2.50;99.90;;;;;;4995890;28;20022;-57
2023/12/28 08:59:14;;;;;;;322.45;130.13;;;2.40;99.90;;;;;;4989953;28;20096;-57
2023/12/28 09:01:39;;;;;;;414.35;142.95;;;2.60;99.90;;;;;;4984077;28;20066;-57
2023/12/28 09:04:05;;;;;;;325.27;125.15;;;2.80;99.90;;;;;;4996301;28;20113;-53
2023/12/28 09:06:31;;;;;;;310.23;122.82;;;2.80;99.90;;;;;;4996178;28;20077;-53
2023/12/28 09:08:57;;;;;;;316.60;126.43;;;2.90;99.90;;;;;;4996150;28;20400;-53
2023/12/28 09:11:23;;;;;;;264.65;116.28;;;2.70;99.90;;;;;;4996243;28;20065;-53
2023/12/28 09:13:49;;;;;;;372.88;120.47;;;2.80;99.90;;;;;;4996245;28;20467;-53
2023/12/28 09:16:16;;;;;;;276.98;111.72;;;2.80;99.90;;;;;;4996172;28;20041;-53
2023/12/28 09:18:42;;;;;;;329.70;114.57;;;2.80;99.90;;;;;;4995447;28;20551;-54
2023/12/28 09:21:08;;;;;;;302.05;109.75;;;2.90;99.90;;;;;;4994480;28;20061;-53
2023/12/28 09:23:35;;;;;;;367.90;120.53;;;3.00;99.90;;;;;;4996218;28;20030;-53
2023/12/28 09:26:05;;;;;;;356.98;119.78;;;3.10;99.90;;;;;;4996072;28;20018;-53
2023/12/28 09:28:31;;;;;;;349.67;133.18;;;3.10;99.90;;;;;;4996012;28;20050;-53
2023/12/28 09:30:57;;;;;;;363.75;141.32;;;3.20;99.90;;;;;;4995934;28;20046;-53
2023/12/28 09:33:24;;;;;;;342.10;136.70;;;3.40;99.90;;;;;;4995533;28;20027;-53
2023/12/28 09:35:49;;;;;;;379.35;143.63;;;3.60;99.90;;;;;;4989694;28;20370;-53
2023/12/28 09:38:15;;;;;;;367.63;143.05;;;3.70;99.90;;;;;;4984037;28;20078;-53
2023/12/28 09:40:42;;;;;;;336.80;129.75;;;3.80;99.90;;;;;;4984419;28;20038;-53
2023/12/28 09:43:27;;;;;;;353.15;138.20;;;3.90;99.90;;;;;;4989840;28;20046;-53
2023/12/28 09:45:54;;;;;;;342.70;137.52;;;3.80;99.90;;;;;;4991768;28;20503;-53
2023/12/28 09:48:21;;;;;;;309.33;121.78;;;3.70;99.90;;;;;;4982742;28;20034;-54
2023/12/28 09:50:54;;;;;;;338.02;135.95;;;3.70;99.90;;;;;;4984304;28;20134;-53
2023/12/28 09:53:23;;;;;;;328.60;124.35;;;3.80;99.90;;;;;;4978471;28;20114;-53
2023/12/28 09:55:51;;;;;;;338.50;135.63;;;3.90;99.90;;;;;;4984369;28;20022;-53
2023/12/28 09:58:19;;;;;;;297.80;129.18;;;3.90;99.90;;;;;;4991307;28;20030;-53
2023/12/28 10:00:46;;;;;;;325.65;135.32;;;4.10;99.90;;;;;;4993953;28;20385;-53
2023/12/28 10:03:17;;;;;;;275.23;122.60;;;4.10;99.90;;;;;;4995301;28;20031;-53
2023/12/28 10:05:44;;;;;;;252.95;119.60;;;4.30;99.90;;;;;;4994528;28;20098;-53
2023/12/28 10:08:16;;;;;;;261.67;117.55;;;4.40;99.90;;;;;;4995043;28;20030;-53
2023/12/28 10:10:43;;;;;;;265.95;120.93;;;4.30;99.90;;;;;;5012965;28;20034;-53
2023/12/28 10:13:10;;;;;;;283.52;125.72;;;4.50;99.90;;;;;;5014756;28;20029;-53
2023/12/28 10:15:37;;;;;;;273.88;122.20;;;4.50;99.90;;;;;;5014688;28;20026;-53
2023/12/28 10:18:04;;;;;;;321.30;126.32;;;4.50;99.90;;;;;;5014443;28;20030;-53
2023/12/28 10:20:31;;;;;;;289.98;129.25;;;4.60;99.90;;;;;;5014114;28;20030;-54
2023/12/28 10:22:58;;;;;;;276.35;120.07;;;4.70;99.90;;;;;;5015276;28;20048;-53
2023/12/28 10:25:24;;;;;;;266.17;123.47;;;4.70;99.90;;;;;;5006147;28;20052;-53
2023/12/28 10:27:53;;;;;;;253.57;113.28;;;4.70;99.90;;;;;;4993595;28;20472;-53
2023/12/28 10:30:22;;;;;;;274.88;122.35;;;4.80;99.90;;;;;;4996993;28;20032;-54
2023/12/28 10:32:48;;;;;;;246.55;114.45;;;4.90;99.90;;;;;;4984030;28;20042;-53
2023/12/28 10:35:14;;;;;;;244.60;116.53;;;5.00;99.90;;;;;;4978954;28;20068;-53
2023/12/28 10:37:44;;;;;;;256.45;116.82;;;5.20;99.90;;;;;;4979041;28;20035;-53
2023/12/28 10:40:16;;;;;;;257.47;120.47;;;5.40;99.90;;;;;;4978924;28;20093;-54
2023/12/28 10:42:54;;;;;;;246.10;116.80;;;5.50;99.90;;;;;;4978846;28;20367;-53
2023/12/28 10:45:25;;;;;;;237.90;112.97;;;5.60;99.90;;;;;;4979046;28;20039;-53
2023/12/28 10:48:10;;;;;;;260.75;116.15;;;5.70;99.90;;;;;;4978974;28;20096;-53
2023/12/28 10:50:37;;;;;;;292.88;129.43;;;5.50;99.90;;;;;;4978824;28;20038;-53
2023/12/28 10:53:28;;;;;;;271.13;127.75;;;5.60;99.90;;;;;;4978929;28;20085;-53
2023/12/28 10:56:12;;;;;;;274.40;124.38;;;5.60;99.90;;;;;;4978709;28;20038;-53
2023/12/28 10:58:50;;;;;;;267.40;124.68;;;5.80;99.90;;;;;;4978614;28;20030;-53
2023/12/28 11:01:25;;;;;;;289.60;126.63;;;6.00;99.90;;;;;;4978220;28;20092;-54
2023/12/28 11:04:10;;;;;;;296.60;129.13;;;6.10;99.90;;;;;;4978253;28;20132;-53
2023/12/28 11:06:37;;;;;;;310.00;137.80;;;6.10;99.90;;;;;;4978637;28;20065;-53
2023/12/28 11:09:07;;;;;;;312.02;142.82;;;6.20;99.90;;;;;;4978532;28;20026;-53
2023/12/28 11:11:33;;;;;;;277.67;132.88;;;6.50;99.90;;;;;;4990985;28;20026;-53
2023/12/28 11:14:00;;;;;;;281.15;135.40;;;6.80;99.90;;;;;;4997246;28;20042;-53
2023/12/28 11:16:28;;;;;;;289.27;136.80;;;7.30;99.90;;;;;;4996775;28;20042;-54
2023/12/28 11:18:55;;;;;;;251.45;123.95;;;7.70;99.90;;;;;;4997549;28;20615;-54
2023/12/28 11:21:22;;;;;;;252.85;125.82;;;8.10;99.90;;;;;;4997754;28;20030;-54
2023/12/28 11:23:49;;;;;;;244.88;120.13;;;8.50;99.90;;;;;;4997811;28;20041;-53
2023/12/28 11:26:20;;;;;;;250.43;123.40;;;9.20;99.90;;;;;;4997878;28;20058;-54
2023/12/28 11:28:46;;;;;;;237.60;119.95;;;9.60;99.90;;;;;;4998024;28;20037;-54
2023/12/28 11:31:15;;;;;;;221.25;115.07;;;10.50;99.90;;;;;;4999603;28;20475;-54
2023/12/28 11:33:52;;;;;;;245.38;121.93;;;11.00;99.00;;;;;;5016994;28;20046;-54
2023/12/28 11:36:43;;;;;;;224.07;119.47;;;11.50;96.80;;;;;;5017249;28;20537;-54
2023/12/28 11:39:10;;;;;;;243.48;122.38;;;12.20;93.50;;;;;;5017165;28;20085;-54
2023/12/28 11:41:36;;;;;;;231.63;118.35;;;13.10;92.80;;;;;;5016326;28;20021;-54
2023/12/28 11:44:05;;;;;;;233.30;119.60;;;13.40;90.90;;;;;;5017039;28;20038;-54
2023/12/28 11:46:32;;;;;;;222.23;117.40;;;13.60;89.90;;;;;;5005609;28;20077;-54
2023/12/28 11:49:08;;;;;;;222.30;119.38;;;13.90;88.70;;;;;;4997511;28;20380;-54
2023/12/28 11:51:39;;;;;;;228.43;123.97;;;14.00;85.60;;;;;;4997228;28;20038;-54
2023/12/28 11:54:06;;;;;;;237.05;123.57;;;14.10;83.00;;;;;;4997428;28;20026;-54
2023/12/28 11:56:34;;;;;;;247.50;127.93;;;14.10;80.90;;;;;;4997284;28;20047;-54
2023/12/28 11:59:00;;;;;;;290.95;139.73;;;13.70;81.80;;;;;;4997116;28;20023;-54
2023/12/28 12:01:26;;;;;;;323.00;148.05;;;14.10;79.90;;;;;;4997167;28;20036;-54
2023/12/28 12:03:53;;;;;;;288.33;141.15;;;13.50;81.00;;;;;;4996975;28;20026;-54
2023/12/28 12:06:19;;;;;;;272.20;138.68;;;13.70;82.20;;;;;;4997441;28;20085;-54
2023/12/28 12:08:46;;;;;;;259.38;134.38;;;14.30;79.70;;;;;;5015615;28;20033;-54
2023/12/28 12:11:12;;;;;;;240.43;120.60;;;14.50;78.70;;;;;;5016762;28;20104;-54
2023/12/28 12:13:38;;;;;;;244.52;126.15;;;14.70;76.30;;;;;;5017039;28;20379;-54
2023/12/28 12:16:05;;;;;;;236.55;119.03;;;14.90;75.50;;;;;;5016467;28;20034;-54
2023/12/28 12:18:35;;;;;;;203.18;109.95;;;15.50;72.40;;;;;;5016565;28;20095;-54